Time,TemperatureF,DewpointF,PressureIn,WindDirection,WindDirectionDegrees,WindSpeedMPH,WindSpeedGustMPH,Humidity,HourlyPrecipIn,Conditions,Clouds,dailyrainin,SoftwareType,DateUTC
2013-02-08 00:00:00,50.2,39.4,29.79,West,270,1.7,2.8,66,0.00,,,0.00,WUHU216TE923,2013-02-08 05:00:00,
2013-02-08 00:05:00,49.8,39.0,29.79,South,180,1.8,2.2,66,0.00,,,0.00,WUHU216TE923,2013-02-08 05:05:00,
2013-02-08 00:10:00,49.8,39.0,29.79,South,180,1.8,1.8,66,0.00,,,0.00,WUHU216TE923,2013-02-08 05:10:00,
2013-02-08 00:15:00,49.8,39.0,29.79,South,180,1.8,1.8,66,0.00,,,0.00,WUHU216TE923,2013-02-08 05:15:00,
2013-02-08 00:20:00,49.8,39.4,29.80,WSW,248,0.3,1.8,67,0.00,,,0.00,WUHU216TE923,2013-02-08 05:20:00,
2013-02-08 00:25:00,49.8,39.4,29.80,WSW,248,0.3,1.8,67,0.00,,,0.00,WUHU216TE923,2013-02-08 05:25:00,
2013-02-08 00:30:00,49.8,40.1,29.80,WSW,248,1.7,2.1,69,0.00,,,0.00,WUHU216TE923,2013-02-08 05:30:00,
2013-02-08 00:35:00,49.8,40.1,29.80,WSW,248,1.7,2.1,69,0.00,,,0.00,WUHU216TE923,2013-02-08 05:35:00,
2013-02-08 00:40:00,49.6,40.0,29.79,West,270,2.0,2.0,69,0.00,,,0.00,WUHU216TE923,2013-02-08 05:40:00,
2013-02-08 00:45:00,49.6,40.0,29.79,West,270,2.0,2.0,69,0.00,,,0.00,WUHU216TE923,2013-02-08 05:45:00,
2013-02-08 00:50:00,49.5,40.2,29.79,WSW,248,1.4,2.0,70,0.00,,,0.00,WUHU216TE923,2013-02-08 05:50:00,
2013-02-08 00:55:00,49.5,40.2,29.79,WSW,248,1.4,2.0,70,0.00,,,0.00,WUHU216TE923,2013-02-08 05:55:00,
2013-02-08 01:00:00,49.3,40.7,29.79,South,180,1.9,2.6,72,0.00,,,0.00,WUHU216TE923,2013-02-08 06:00:00,
2013-02-08 01:05:00,49.3,40.7,29.79,South,180,1.9,2.6,72,0.00,,,0.00,WUHU216TE923,2013-02-08 06:05:00,
2013-02-08 01:10:00,49.5,41.3,29.79,WSW,248,2.7,2.9,73,0.00,,,0.00,WUHU216TE923,2013-02-08 06:10:00,
2013-02-08 01:15:00,49.5,41.3,29.79,WSW,248,2.7,2.9,73,0.00,,,0.00,WUHU216TE923,2013-02-08 06:15:00,
2013-02-08 01:20:00,49.6,41.7,29.78,SW,225,2.5,2.9,74,0.00,,,0.00,WUHU216TE923,2013-02-08 06:20:00,
2013-02-08 01:25:00,49.6,41.7,29.78,SW,225,2.5,2.9,74,0.00,,,0.00,WUHU216TE923,2013-02-08 06:25:00,
2013-02-08 01:30:00,49.8,41.9,29.78,West,270,2.5,3.5,74,0.00,,,0.00,WUHU216TE923,2013-02-08 06:30:00,
2013-02-08 01:35:00,49.8,41.9,29.78,West,270,2.5,3.5,74,0.00,,,0.00,WUHU216TE923,2013-02-08 06:35:00,
2013-02-08 01:40:00,49.8,42.3,29.77,WSW,248,2.7,4.0,75,0.00,,,0.00,WUHU216TE923,2013-02-08 06:40:00,
2013-02-08 01:45:00,49.8,42.3,29.77,WSW,248,2.7,4.0,75,0.00,,,0.00,WUHU216TE923,2013-02-08 06:45:00,
2013-02-08 01:50:00,49.8,42.3,29.77,West,270,3.1,3.1,75,0.00,,,0.00,WUHU216TE923,2013-02-08 06:50:00,
2013-02-08 01:55:00,49.8,42.3,29.77,West,270,3.1,3.1,75,0.00,,,0.00,WUHU216TE923,2013-02-08 06:55:00,
2013-02-08 02:00:00,49.8,42.3,29.77,WSW,248,3.3,5.0,75,0.00,,,0.00,WUHU216TE923,2013-02-08 07:00:00,
2013-02-08 02:05:00,49.8,42.3,29.77,WSW,248,3.3,5.0,75,0.00,,,0.00,WUHU216TE923,2013-02-08 07:05:00,
2013-02-08 02:10:00,49.8,42.3,29.77,WSW,248,3.2,6.1,75,0.00,,,0.00,WUHU216TE923,2013-02-08 07:10:00,
2013-02-08 02:15:00,49.8,42.3,29.77,WSW,248,3.2,6.1,75,0.00,,,0.00,WUHU216TE923,2013-02-08 07:15:00,
2013-02-08 02:20:00,50.0,42.5,29.76,SW,225,3.3,3.3,75,0.00,,,0.00,WUHU216TE923,2013-02-08 07:20:00,
2013-02-08 02:25:00,50.0,42.5,29.76,SW,225,3.3,3.3,75,0.00,,,0.00,WUHU216TE923,2013-02-08 07:25:00,
2013-02-08 02:30:00,50.0,42.8,29.76,South,180,3.7,5.2,76,0.00,,,0.00,WUHU216TE923,2013-02-08 07:30:00,
2013-02-08 02:36:00,50.0,42.8,29.76,South,180,3.7,5.2,76,0.00,,,0.00,WUHU216TE923,2013-02-08 07:36:00,
2013-02-08 02:41:00,50.0,42.8,29.76,WSW,248,3.8,5.8,76,0.00,,,0.00,WUHU216TE923,2013-02-08 07:41:00,
2013-02-08 02:46:00,50.0,42.8,29.76,WSW,248,3.8,5.8,76,0.00,,,0.00,WUHU216TE923,2013-02-08 07:46:00,
2013-02-08 02:51:00,50.0,42.8,29.76,WSW,248,3.3,4.0,76,0.00,,,0.00,WUHU216TE923,2013-02-08 07:51:00,
2013-02-08 02:56:00,50.0,42.8,29.76,WSW,248,3.3,4.0,76,0.00,,,0.00,WUHU216TE923,2013-02-08 07:56:00,
2013-02-08 03:01:00,50.0,43.1,29.76,WSW,248,2.9,3.1,77,0.00,,,0.00,WUHU216TE923,2013-02-08 08:01:00,
2013-02-08 03:06:00,50.0,43.1,29.76,WSW,248,2.9,3.1,77,0.00,,,0.00,WUHU216TE923,2013-02-08 08:06:00,
2013-02-08 03:11:00,50.0,43.1,29.76,SW,225,2.9,3.2,77,0.00,,,0.00,WUHU216TE923,2013-02-08 08:11:00,
2013-02-08 03:16:00,50.0,43.1,29.76,SW,225,2.9,3.2,77,0.00,,,0.00,WUHU216TE923,2013-02-08 08:16:00,
2013-02-08 03:21:00,50.0,43.1,29.76,SW,225,3.3,4.0,77,0.00,,,0.00,WUHU216TE923,2013-02-08 08:21:00,
2013-02-08 03:26:00,50.0,43.1,29.76,SW,225,3.3,4.0,77,0.00,,,0.00,WUHU216TE923,2013-02-08 08:26:00,
2013-02-08 03:31:00,50.0,43.1,29.76,SSW,203,3.3,4.4,77,0.00,,,0.00,WUHU216TE923,2013-02-08 08:31:00,
2013-02-08 03:36:00,50.0,43.1,29.76,SSW,203,3.3,4.4,77,0.00,,,0.00,WUHU216TE923,2013-02-08 08:36:00,
2013-02-08 03:41:00,50.0,43.5,29.76,West,270,2.5,3.1,78,0.00,,,0.00,WUHU216TE923,2013-02-08 08:41:00,
2013-02-08 03:46:00,50.0,43.5,29.76,West,270,2.5,3.1,78,0.00,,,0.00,WUHU216TE923,2013-02-08 08:46:00,
2013-02-08 03:51:00,49.8,43.6,29.76,WSW,248,2.2,3.6,79,0.00,,,0.00,WUHU216TE923,2013-02-08 08:51:00,
2013-02-08 03:56:00,49.8,43.6,29.76,WSW,248,2.2,3.6,79,0.00,,,0.00,WUHU216TE923,2013-02-08 08:56:00,
2013-02-08 04:01:00,49.8,43.9,29.76,West,270,1.6,1.7,80,0.00,,,0.00,WUHU216TE923,2013-02-08 09:01:00,
2013-02-08 04:06:00,49.8,43.9,29.76,West,270,1.6,1.7,80,0.00,,,0.00,WUHU216TE923,2013-02-08 09:06:00,
2013-02-08 04:11:00,49.8,44.2,29.76,West,270,2.1,3.3,81,0.00,,,0.00,WUHU216TE923,2013-02-08 09:11:00,
2013-02-08 04:16:00,49.8,44.2,29.76,West,270,2.1,3.3,81,0.00,,,0.00,WUHU216TE923,2013-02-08 09:16:00,
2013-02-08 04:21:00,49.5,44.2,29.76,WSW,248,3.1,3.7,82,0.03,,,0.03,WUHU216TE923,2013-02-08 09:21:00,
2013-02-08 04:26:00,49.5,44.2,29.76,WSW,248,3.1,3.7,82,0.03,,,0.03,WUHU216TE923,2013-02-08 09:26:00,
2013-02-08 04:31:00,49.3,44.4,29.76,WSW,248,3.4,3.8,83,0.03,,,0.03,WUHU216TE923,2013-02-08 09:31:00,
2013-02-08 04:36:00,49.3,44.4,29.76,WSW,248,3.4,3.8,83,0.03,,,0.03,WUHU216TE923,2013-02-08 09:36:00,
2013-02-08 04:41:00,49.3,44.7,29.76,West,270,4.0,4.8,84,0.03,,,0.03,WUHU216TE923,2013-02-08 09:41:00,
2013-02-08 04:46:00,49.3,44.7,29.76,West,270,4.0,4.8,84,0.03,,,0.03,WUHU216TE923,2013-02-08 09:46:00,
2013-02-08 04:51:00,49.3,44.7,29.76,WSW,248,4.6,5.1,84,0.03,,,0.03,WUHU216TE923,2013-02-08 09:51:00,
2013-02-08 04:56:00,49.3,44.7,29.76,WSW,248,4.6,5.1,84,0.03,,,0.03,WUHU216TE923,2013-02-08 09:56:00,
2013-02-08 05:01:00,49.3,45.0,29.76,WSW,248,4.7,5.3,85,0.03,,,0.03,WUHU216TE923,2013-02-08 10:01:00,
2013-02-08 05:06:00,49.3,45.0,29.76,WSW,248,4.7,5.3,85,0.03,,,0.03,WUHU216TE923,2013-02-08 10:06:00,
2013-02-08 05:11:00,49.3,45.0,29.76,West,270,4.4,5.0,85,0.00,,,0.03,WUHU216TE923,2013-02-08 10:11:00,
2013-02-08 05:16:00,49.3,45.0,29.76,West,270,4.4,5.0,85,0.00,,,0.03,WUHU216TE923,2013-02-08 10:16:00,
2013-02-08 05:21:00,49.3,45.0,29.77,West,270,4.0,5.4,85,0.00,,,0.03,WUHU216TE923,2013-02-08 10:21:00,
2013-02-08 05:26:00,49.3,45.0,29.77,West,270,4.0,5.4,85,0.00,,,0.03,WUHU216TE923,2013-02-08 10:26:00,
2013-02-08 05:31:00,49.3,45.3,29.77,WNW,293,3.9,5.5,86,0.00,,,0.03,WUHU216TE923,2013-02-08 10:31:00,
2013-02-08 05:36:00,49.3,45.3,29.77,WNW,293,3.9,5.5,86,0.00,,,0.03,WUHU216TE923,2013-02-08 10:36:00,
2013-02-08 05:41:00,49.3,45.3,29.77,SW,225,4.2,5.3,86,0.03,,,0.06,WUHU216TE923,2013-02-08 10:41:00,
2013-02-08 05:46:00,49.3,45.3,29.77,SW,225,4.2,5.3,86,0.03,,,0.06,WUHU216TE923,2013-02-08 10:46:00,
2013-02-08 05:51:00,49.3,45.3,29.77,SW,225,3.8,6.5,86,0.03,,,0.06,WUHU216TE923,2013-02-08 10:51:00,
2013-02-08 05:56:00,49.3,45.3,29.77,SW,225,3.8,6.5,86,0.03,,,0.06,WUHU216TE923,2013-02-08 10:56:00,
2013-02-08 06:01:00,49.1,44.8,29.79,NW,315,4.3,4.9,85,0.03,,,0.06,WUHU216TE923,2013-02-08 11:01:00,
2013-02-08 06:06:00,49.1,44.8,29.79,NW,315,4.3,4.9,85,0.03,,,0.06,WUHU216TE923,2013-02-08 11:06:00,
2013-02-08 06:11:00,48.7,44.4,29.79,East,90,4.1,4.1,85,0.03,,,0.06,WUHU216TE923,2013-02-08 11:11:00,
2013-02-08 06:16:00,48.7,44.4,29.79,East,90,4.1,4.1,85,0.03,,,0.06,WUHU216TE923,2013-02-08 11:16:00,
2013-02-08 06:21:00,47.7,43.1,29.80,WNW,293,2.6,4.3,84,0.03,,,0.06,WUHU216TE923,2013-02-08 11:21:00,
2013-02-08 06:26:00,47.7,43.1,29.80,WNW,293,2.6,4.3,84,0.03,,,0.06,WUHU216TE923,2013-02-08 11:26:00,
2013-02-08 06:31:00,47.1,42.5,29.80,West,270,2.3,4.4,84,0.00,,,0.06,WUHU216TE923,2013-02-08 11:31:00,
2013-02-08 06:36:00,47.1,42.5,29.80,West,270,2.3,4.4,84,0.00,,,0.06,WUHU216TE923,2013-02-08 11:36:00,
2013-02-08 06:41:00,46.9,42.3,29.82,WSW,248,2.0,2.7,84,0.00,,,0.06,WUHU216TE923,2013-02-08 11:41:00,
2013-02-08 06:46:00,46.9,42.3,29.82,WSW,248,2.0,2.7,84,0.00,,,0.06,WUHU216TE923,2013-02-08 11:46:00,
2013-02-08 06:51:00,46.2,41.3,29.82,NNW,338,2.2,4.9,83,0.00,,,0.06,WUHU216TE923,2013-02-08 11:51:00,
2013-02-08 06:56:00,46.2,41.3,29.82,NNW,338,2.2,4.9,83,0.00,,,0.06,WUHU216TE923,2013-02-08 11:56:00,
2013-02-08 07:01:00,45.9,41.0,29.83,SSE,158,2.4,4.1,83,0.00,,,0.06,WUHU216TE923,2013-02-08 12:01:00,
2013-02-08 07:06:00,45.9,41.0,29.83,SSE,158,2.4,4.1,83,0.00,,,0.06,WUHU216TE923,2013-02-08 12:06:00,
2013-02-08 07:11:00,45.5,40.6,29.83,WNW,293,2.3,4.8,83,0.00,,,0.06,WUHU216TE923,2013-02-08 12:11:00,
2013-02-08 07:16:00,45.5,40.6,29.83,WNW,293,2.3,4.8,83,0.00,,,0.06,WUHU216TE923,2013-02-08 12:16:00,
2013-02-08 07:21:00,45.1,40.5,29.85,West,270,2.2,3.7,84,0.00,,,0.06,WUHU216TE923,2013-02-08 12:21:00,
2013-02-08 07:26:00,45.1,40.5,29.85,West,270,2.2,3.7,84,0.00,,,0.06,WUHU216TE923,2013-02-08 12:26:00,
2013-02-08 07:31:00,45.0,40.1,29.85,NW,315,2.0,3.0,83,0.00,,,0.06,WUHU216TE923,2013-02-08 12:31:00,
2013-02-08 07:36:00,45.0,40.1,29.85,NW,315,2.0,3.0,83,0.00,,,0.06,WUHU216TE923,2013-02-08 12:36:00,
2013-02-08 07:41:00,44.4,39.3,29.86,West,270,2.7,3.7,82,0.00,,,0.06,WUHU216TE923,2013-02-08 12:41:00,
2013-02-08 07:46:00,44.4,39.3,29.86,West,270,2.7,3.7,82,0.00,,,0.06,WUHU216TE923,2013-02-08 12:46:00,
2013-02-08 07:51:00,44.2,39.1,29.86,West,270,1.8,4.0,82,0.00,,,0.06,WUHU216TE923,2013-02-08 12:51:00,
2013-02-08 07:56:00,44.2,39.1,29.86,West,270,1.8,4.0,82,0.00,,,0.06,WUHU216TE923,2013-02-08 12:56:00,
2013-02-08 08:01:00,44.1,39.3,29.88,WNW,293,2.1,3.5,83,0.00,,,0.06,WUHU216TE923,2013-02-08 13:01:00,
2013-02-08 08:06:00,44.1,39.3,29.88,WNW,293,2.1,3.5,83,0.00,,,0.06,WUHU216TE923,2013-02-08 13:06:00,
2013-02-08 08:11:00,43.9,38.8,29.88,West,270,2.2,4.2,82,0.00,,,0.06,WUHU216TE923,2013-02-08 13:11:00,
2013-02-08 08:16:00,43.9,38.8,29.88,West,270,2.2,4.2,82,0.00,,,0.06,WUHU216TE923,2013-02-08 13:16:00,
2013-02-08 08:21:00,43.2,37.5,29.90,NW,315,2.8,5.2,80,0.00,,,0.06,WUHU216TE923,2013-02-08 13:21:00,
2013-02-08 08:26:00,43.2,37.5,29.90,NW,315,2.8,5.2,80,0.00,,,0.06,WUHU216TE923,2013-02-08 13:26:00,
2013-02-08 08:31:00,42.6,36.9,29.90,West,270,3.1,5.9,80,0.00,,,0.06,WUHU216TE923,2013-02-08 13:31:00,
2013-02-08 08:36:00,42.6,36.9,29.90,West,270,3.1,5.9,80,0.00,,,0.06,WUHU216TE923,2013-02-08 13:36:00,
2013-02-08 08:41:00,42.1,36.4,29.92,West,270,3.2,4.0,80,0.00,,,0.06,WUHU216TE923,2013-02-08 13:41:00,
2013-02-08 08:46:00,42.1,36.4,29.92,West,270,3.2,4.0,80,0.00,,,0.06,WUHU216TE923,2013-02-08 13:46:00,
2013-02-08 08:51:00,41.7,36.0,29.92,West,270,2.8,4.2,80,0.00,,,0.06,WUHU216TE923,2013-02-08 13:51:00,
2013-02-08 08:56:00,41.7,36.0,29.92,West,270,2.8,4.2,80,0.00,,,0.06,WUHU216TE923,2013-02-08 13:56:00,
2013-02-08 09:01:00,41.2,35.2,29.93,SW,225,2.4,4.3,79,0.00,,,0.06,WUHU216TE923,2013-02-08 14:01:00,
2013-02-08 09:06:00,41.2,35.2,29.93,SW,225,2.4,4.3,79,0.00,,,0.06,WUHU216TE923,2013-02-08 14:06:00,
2013-02-08 09:11:00,41.2,35.2,29.93,NNW,338,2.5,5.7,79,0.00,,,0.06,WUHU216TE923,2013-02-08 14:11:00,
2013-02-08 09:16:00,41.2,35.2,29.93,NNW,338,2.5,5.7,79,0.00,,,0.06,WUHU216TE923,2013-02-08 14:16:00,
2013-02-08 09:21:00,41.2,35.5,29.94,West,270,1.6,2.4,80,0.00,,,0.06,WUHU216TE923,2013-02-08 14:21:00,
2013-02-08 09:26:00,41.2,35.5,29.94,West,270,1.6,2.4,80,0.00,,,0.06,WUHU216TE923,2013-02-08 14:26:00,
2013-02-08 09:31:00,41.2,35.2,29.94,North,0,1.8,3.1,79,0.00,,,0.06,WUHU216TE923,2013-02-08 14:31:00,
2013-02-08 09:36:00,41.2,35.2,29.94,North,0,1.8,3.1,79,0.00,,,0.06,WUHU216TE923,2013-02-08 14:36:00,
2013-02-08 09:41:00,40.8,34.8,29.95,WSW,248,1.5,4.8,79,0.00,,,0.06,WUHU216TE923,2013-02-08 14:41:00,
2013-02-08 09:46:00,40.8,34.8,29.95,WSW,248,1.5,4.8,79,0.00,,,0.06,WUHU216TE923,2013-02-08 14:46:00,
2013-02-08 09:51:00,41.2,35.2,29.95,WSW,248,2.1,5.0,79,0.00,,,0.06,WUHU216TE923,2013-02-08 14:51:00,
2013-02-08 09:56:00,41.2,35.2,29.95,WSW,248,2.1,5.0,79,0.00,,,0.06,WUHU216TE923,2013-02-08 14:56:00,
2013-02-08 10:01:00,41.2,35.2,29.96,WSW,248,1.6,2.2,79,0.00,,,0.06,WUHU216TE923,2013-02-08 15:01:00,
2013-02-08 10:06:00,41.2,35.2,29.96,WSW,248,1.6,2.2,79,0.00,,,0.06,WUHU216TE923,2013-02-08 15:06:00,
2013-02-08 10:11:00,41.5,35.5,29.96,ENE,68,1.9,2.4,79,0.00,,,0.06,WUHU216TE923,2013-02-08 15:11:00,
2013-02-08 10:16:00,41.5,35.5,29.96,ENE,68,1.9,2.4,79,0.00,,,0.06,WUHU216TE923,2013-02-08 15:16:00,
2013-02-08 10:21:00,41.0,34.7,29.97,WSW,248,1.7,1.7,78,0.00,,,0.06,WUHU216TE923,2013-02-08 15:21:00,
2013-02-08 10:26:00,41.0,34.7,29.97,WSW,248,1.7,1.7,78,0.00,,,0.06,WUHU216TE923,2013-02-08 15:26:00,
2013-02-08 10:31:00,40.8,34.5,29.97,WSW,248,1.8,2.6,78,0.00,,,0.06,WUHU216TE923,2013-02-08 15:31:00,
2013-02-08 10:36:00,40.8,34.5,29.97,WSW,248,1.8,2.6,78,0.00,,,0.06,WUHU216TE923,2013-02-08 15:36:00,
2013-02-08 10:41:00,40.5,34.2,29.99,West,270,2.8,6.1,78,0.00,,,0.06,WUHU216TE923,2013-02-08 15:41:00,
2013-02-08 10:46:00,40.5,34.2,29.99,West,270,2.8,6.1,78,0.00,,,0.06,WUHU216TE923,2013-02-08 15:46:00,
2013-02-08 10:51:00,39.9,33.3,29.99,West,270,3.5,5.2,77,0.00,,,0.06,WUHU216TE923,2013-02-08 15:51:00,
2013-02-08 10:56:00,39.9,33.3,29.99,West,270,3.5,5.2,77,0.00,,,0.06,WUHU216TE923,2013-02-08 15:56:00,
2013-02-08 11:01:00,39.7,33.1,29.99,West,270,2.6,4.0,77,0.00,,,0.06,WUHU216TE923,2013-02-08 16:01:00,
2013-02-08 11:06:00,39.7,33.1,29.99,West,270,2.6,4.0,77,0.00,,,0.06,WUHU216TE923,2013-02-08 16:06:00,
2013-02-08 11:11:00,39.7,33.7,29.99,NNE,23,2.8,4.0,79,0.00,,,0.06,WUHU216TE923,2013-02-08 16:11:00,
2013-02-08 11:16:00,39.7,33.7,29.99,NNE,23,2.8,4.0,79,0.00,,,0.06,WUHU216TE923,2013-02-08 16:16:00,
2013-02-08 11:21:00,39.4,32.8,30.01,West,270,2.8,8.6,77,0.00,,,0.06,WUHU216TE923,2013-02-08 16:21:00,
2013-02-08 11:26:00,39.4,32.8,30.01,West,270,2.8,8.6,77,0.00,,,0.06,WUHU216TE923,2013-02-08 16:26:00,
2013-02-08 11:31:00,39.4,33.1,30.01,WSW,248,2.8,3.8,78,0.00,,,0.06,WUHU216TE923,2013-02-08 16:31:00,
2013-02-08 11:36:00,39.4,33.1,30.01,WSW,248,2.8,3.8,78,0.00,,,0.06,WUHU216TE923,2013-02-08 16:36:00,
2013-02-08 11:41:00,39.2,32.9,30.02,WNW,293,2.4,6.8,78,0.00,,,0.06,WUHU216TE923,2013-02-08 16:41:00,
2013-02-08 11:46:00,39.2,32.9,30.02,WNW,293,2.4,6.8,78,0.00,,,0.06,WUHU216TE923,2013-02-08 16:46:00,
2013-02-08 11:51:00,39.0,32.4,30.02,NW,315,2.3,2.9,77,0.00,,,0.06,WUHU216TE923,2013-02-08 16:51:00,
2013-02-08 11:56:00,39.0,32.4,30.02,NW,315,2.3,2.9,77,0.00,,,0.06,WUHU216TE923,2013-02-08 16:56:00,
2013-02-08 12:01:00,39.4,33.5,30.02,WSW,248,1.5,1.8,79,0.00,,,0.06,WUHU216TE923,2013-02-08 17:01:00,
2013-02-08 12:06:00,39.4,33.5,30.02,WSW,248,1.5,1.8,79,0.00,,,0.06,WUHU216TE923,2013-02-08 17:06:00,
2013-02-08 12:11:00,39.7,33.7,30.02,WNW,293,1.6,2.2,79,0.00,,,0.06,WUHU216TE923,2013-02-08 17:11:00,
2013-02-08 12:16:00,39.7,33.7,30.02,WNW,293,1.6,2.2,79,0.00,,,0.06,WUHU216TE923,2013-02-08 17:16:00,
2013-02-08 12:21:00,39.4,33.1,30.02,West,270,2.3,4.3,78,0.00,,,0.06,WUHU216TE923,2013-02-08 17:21:00,
2013-02-08 12:26:00,39.4,33.1,30.02,West,270,2.3,4.3,78,0.00,,,0.06,WUHU216TE923,2013-02-08 17:26:00,
2013-02-08 12:31:00,39.2,32.3,30.02,WNW,293,2.5,3.8,76,0.00,,,0.06,WUHU216TE923,2013-02-08 17:31:00,
2013-02-08 12:36:00,39.2,32.3,30.02,WNW,293,2.5,3.8,76,0.00,,,0.06,WUHU216TE923,2013-02-08 17:36:00,
2013-02-08 12:41:00,38.8,32.2,30.02,WSW,248,2.7,4.6,77,0.00,,,0.06,WUHU216TE923,2013-02-08 17:41:00,
2013-02-08 12:46:00,38.8,32.2,30.02,WSW,248,2.7,4.6,77,0.00,,,0.06,WUHU216TE923,2013-02-08 17:46:00,
2013-02-08 12:51:00,39.0,32.8,30.02,WNW,293,2.4,2.8,78,0.00,,,0.06,WUHU216TE923,2013-02-08 17:51:00,
2013-02-08 12:56:00,39.0,32.8,30.02,WNW,293,2.4,2.8,78,0.00,,,0.06,WUHU216TE923,2013-02-08 17:56:00,
2013-02-08 13:01:00,39.0,32.8,30.03,West,270,2.2,3.8,78,0.00,,,0.06,WUHU216TE923,2013-02-08 18:01:00,
2013-02-08 13:06:00,39.0,32.8,30.03,West,270,2.2,3.8,78,0.00,,,0.06,WUHU216TE923,2013-02-08 18:06:00,
2013-02-08 13:11:00,39.0,32.4,30.03,South,180,2.4,3.2,77,0.00,,,0.06,WUHU216TE923,2013-02-08 18:11:00,
2013-02-08 13:16:00,39.0,32.4,30.03,South,180,2.4,3.2,77,0.00,,,0.06,WUHU216TE923,2013-02-08 18:16:00,
2013-02-08 13:21:00,39.0,32.4,30.03,West,270,2.1,3.6,77,0.00,,,0.06,WUHU216TE923,2013-02-08 18:21:00,
2013-02-08 13:26:00,39.0,32.4,30.03,West,270,2.1,3.6,77,0.00,,,0.06,WUHU216TE923,2013-02-08 18:26:00,
2013-02-08 13:31:00,39.0,32.4,30.03,West,270,2.2,2.8,77,0.00,,,0.06,WUHU216TE923,2013-02-08 18:31:00,
2013-02-08 13:36:00,39.0,32.4,30.03,West,270,2.2,2.8,77,0.00,,,0.06,WUHU216TE923,2013-02-08 18:36:00,
2013-02-08 13:41:00,39.0,32.1,30.03,West,270,1.6,2.4,76,0.00,,,0.06,WUHU216TE923,2013-02-08 18:41:00,
2013-02-08 13:46:00,39.0,32.1,30.03,West,270,1.6,2.4,76,0.00,,,0.06,WUHU216TE923,2013-02-08 18:46:00,
2013-02-08 13:51:00,39.0,32.1,30.03,WNW,293,2.3,2.4,76,0.00,,,0.06,WUHU216TE923,2013-02-08 18:51:00,
2013-02-08 13:56:00,39.0,32.1,30.03,WNW,293,2.3,2.4,76,0.00,,,0.06,WUHU216TE923,2013-02-08 18:56:00,
2013-02-08 14:01:00,39.2,32.3,30.04,West,270,1.9,2.7,76,0.00,,,0.06,WUHU216TE923,2013-02-08 19:01:00,
2013-02-08 14:06:00,39.2,32.3,30.04,West,270,1.9,2.7,76,0.00,,,0.06,WUHU216TE923,2013-02-08 19:06:00,
2013-02-08 14:11:00,39.0,32.1,30.04,West,270,1.9,3.0,76,0.00,,,0.06,WUHU216TE923,2013-02-08 19:11:00,
2013-02-08 14:16:00,39.0,32.1,30.04,West,270,1.9,3.0,76,0.00,,,0.06,WUHU216TE923,2013-02-08 19:16:00,
2013-02-08 14:21:00,39.2,32.3,30.04,West,270,1.3,2.4,76,0.00,,,0.06,WUHU216TE923,2013-02-08 19:21:00,
2013-02-08 14:26:00,39.2,32.3,30.04,West,270,1.3,2.4,76,0.00,,,0.06,WUHU216TE923,2013-02-08 19:26:00,
2013-02-08 14:31:00,39.2,32.0,30.04,West,270,1.9,3.4,75,0.00,,,0.06,WUHU216TE923,2013-02-08 19:31:00,
2013-02-08 14:36:00,39.2,32.0,30.04,West,270,1.9,3.4,75,0.00,,,0.06,WUHU216TE923,2013-02-08 19:36:00,
2013-02-08 14:41:00,39.2,32.0,30.04,North,0,1.6,2.9,75,0.00,,,0.06,WUHU216TE923,2013-02-08 19:41:00,
2013-02-08 14:46:00,39.2,32.0,30.04,North,0,1.6,2.9,75,0.00,,,0.06,WUHU216TE923,2013-02-08 19:46:00,
2013-02-08 14:51:00,39.2,31.7,30.04,WSW,248,1.6,3.4,74,0.00,,,0.06,WUHU216TE923,2013-02-08 19:51:00,
2013-02-08 14:56:00,39.2,31.7,30.04,WSW,248,1.6,3.4,74,0.00,,,0.06,WUHU216TE923,2013-02-08 19:56:00,
2013-02-08 15:01:00,39.0,31.8,30.05,West,270,2.0,3.3,75,0.00,,,0.06,WUHU216TE923,2013-02-08 20:01:00,
2013-02-08 15:06:00,39.0,31.8,30.05,West,270,2.0,3.3,75,0.00,,,0.06,WUHU216TE923,2013-02-08 20:06:00,
2013-02-08 15:11:00,39.0,32.1,30.05,SW,225,2.2,3.6,76,0.00,,,0.06,WUHU216TE923,2013-02-08 20:11:00,
2013-02-08 15:16:00,39.0,32.1,30.05,SW,225,2.2,3.6,76,0.00,,,0.06,WUHU216TE923,2013-02-08 20:16:00,
2013-02-08 15:21:00,39.7,32.5,30.05,West,270,2.2,3.0,75,0.00,,,0.06,WUHU216TE923,2013-02-08 20:21:00,
2013-02-08 15:26:00,39.7,32.5,30.05,West,270,2.2,3.0,75,0.00,,,0.06,WUHU216TE923,2013-02-08 20:26:00,
2013-02-08 15:31:00,39.4,32.2,30.05,NW,315,1.1,1.9,75,0.00,,,0.06,WUHU216TE923,2013-02-08 20:31:00,
2013-02-08 15:36:00,39.4,32.2,30.05,NW,315,1.1,1.9,75,0.00,,,0.06,WUHU216TE923,2013-02-08 20:36:00,
2013-02-08 15:41:00,39.0,31.5,30.06,WNW,293,2.0,2.3,74,0.00,,,0.06,WUHU216TE923,2013-02-08 20:41:00,
2013-02-08 15:46:00,39.0,31.5,30.06,WNW,293,2.0,2.3,74,0.00,,,0.06,WUHU216TE923,2013-02-08 20:46:00,
2013-02-08 15:51:00,39.0,31.5,30.06,East,90,1.6,2.2,74,0.00,,,0.06,WUHU216TE923,2013-02-08 20:51:00,
2013-02-08 15:56:00,39.0,31.5,30.06,East,90,1.6,2.2,74,0.00,,,0.06,WUHU216TE923,2013-02-08 20:56:00,
2013-02-08 16:01:00,38.8,31.3,30.06,West,270,1.4,1.8,74,0.00,,,0.06,WUHU216TE923,2013-02-08 21:01:00,
2013-02-08 16:06:00,38.8,31.3,30.06,West,270,1.4,1.8,74,0.00,,,0.06,WUHU216TE923,2013-02-08 21:06:00,
2013-02-08 16:11:00,38.8,31.3,30.06,West,270,1.7,2.5,74,0.00,,,0.06,WUHU216TE923,2013-02-08 21:11:00,
2013-02-08 16:16:00,38.8,31.3,30.06,West,270,1.7,2.5,74,0.00,,,0.06,WUHU216TE923,2013-02-08 21:16:00,
2013-02-08 16:21:00,39.0,31.1,30.08,SW,225,1.8,4.5,73,0.00,,,0.06,WUHU216TE923,2013-02-08 21:21:00,
2013-02-08 16:26:00,39.0,31.1,30.08,SW,225,1.8,4.5,73,0.00,,,0.06,WUHU216TE923,2013-02-08 21:26:00,
2013-02-08 16:31:00,39.0,30.8,30.08,SW,225,2.0,4.5,72,0.00,,,0.06,WUHU216TE923,2013-02-08 21:31:00,
2013-02-08 16:36:00,39.0,30.8,30.08,SW,225,2.0,4.5,72,0.00,,,0.06,WUHU216TE923,2013-02-08 21:36:00,
2013-02-08 16:41:00,39.0,30.8,30.08,SSW,203,1.9,2.5,72,0.00,,,0.06,WUHU216TE923,2013-02-08 21:41:00,
2013-02-08 16:46:00,39.0,30.8,30.08,SSW,203,1.9,2.5,72,0.00,,,0.06,WUHU216TE923,2013-02-08 21:46:00,
2013-02-08 16:51:00,38.5,30.3,30.08,West,270,2.3,3.0,72,0.00,,,0.06,WUHU216TE923,2013-02-08 21:51:00,
2013-02-08 16:56:00,38.5,30.3,30.08,West,270,2.3,3.0,72,0.00,,,0.06,WUHU216TE923,2013-02-08 21:56:00,
2013-02-08 17:01:00,38.1,29.9,30.11,WSW,248,1.8,3.5,72,0.00,,,0.06,WUHU216TE923,2013-02-08 22:01:00,
2013-02-08 17:06:00,38.1,29.9,30.11,WSW,248,1.8,3.5,72,0.00,,,0.06,WUHU216TE923,2013-02-08 22:06:00,
2013-02-08 17:11:00,38.3,30.1,30.11,West,270,1.7,3.8,72,0.00,,,0.06,WUHU216TE923,2013-02-08 22:11:00,
2013-02-08 17:16:00,38.3,30.1,30.11,West,270,1.7,3.8,72,0.00,,,0.06,WUHU216TE923,2013-02-08 22:16:00,
2013-02-08 17:21:00,38.3,30.1,30.10,ESE,113,1.8,2.7,72,0.00,,,0.06,WUHU216TE923,2013-02-08 22:21:00,
2013-02-08 17:26:00,38.3,30.1,30.10,ESE,113,1.8,2.7,72,0.00,,,0.06,WUHU216TE923,2013-02-08 22:26:00,
2013-02-08 17:31:00,37.9,29.7,30.10,West,270,2.0,2.1,72,0.00,,,0.06,WUHU216TE923,2013-02-08 22:31:00,
2013-02-08 17:36:00,37.9,29.7,30.10,West,270,2.0,2.1,72,0.00,,,0.06,WUHU216TE923,2013-02-08 22:36:00,
2013-02-08 17:41:00,37.9,29.7,30.11,NW,315,2.0,3.4,72,0.00,,,0.06,WUHU216TE923,2013-02-08 22:41:00,
2013-02-08 17:46:00,37.9,29.7,30.11,NW,315,2.0,3.4,72,0.00,,,0.06,WUHU216TE923,2013-02-08 22:46:00,
2013-02-08 17:51:00,37.6,29.5,30.11,West,270,1.9,2.8,72,0.00,,,0.06,WUHU216TE923,2013-02-08 22:51:00,
2013-02-08 17:56:00,37.6,29.5,30.11,West,270,1.9,2.8,72,0.00,,,0.06,WUHU216TE923,2013-02-08 22:56:00,
2013-02-08 18:01:00,37.6,29.8,30.14,West,270,1.4,3.6,73,0.00,,,0.06,WUHU216TE923,2013-02-08 23:01:00,
2013-02-08 18:06:00,37.6,29.8,30.14,West,270,1.4,3.6,73,0.00,,,0.06,WUHU216TE923,2013-02-08 23:06:00,
2013-02-08 18:11:00,37.8,30.0,30.14,SW,225,1.1,2.2,73,0.00,,,0.06,WUHU216TE923,2013-02-08 23:11:00,
2013-02-08 18:16:00,37.8,30.0,30.14,SW,225,1.1,2.2,73,0.00,,,0.06,WUHU216TE923,2013-02-08 23:16:00,
2013-02-08 18:21:00,37.6,29.8,30.14,NW,315,1.9,4.2,73,0.00,,,0.06,WUHU216TE923,2013-02-08 23:21:00,
2013-02-08 18:26:00,37.6,29.8,30.14,NW,315,1.9,4.2,73,0.00,,,0.06,WUHU216TE923,2013-02-08 23:26:00,
2013-02-08 18:31:00,37.6,29.8,30.14,West,270,2.0,3.3,73,0.00,,,0.06,WUHU216TE923,2013-02-08 23:31:00,
2013-02-08 18:36:00,37.6,29.8,30.14,West,270,2.0,3.3,73,0.00,,,0.06,WUHU216TE923,2013-02-08 23:36:00,
2013-02-08 18:41:00,37.6,29.8,30.14,North,0,1.9,5.5,73,0.00,,,0.06,WUHU216TE923,2013-02-08 23:41:00,
2013-02-08 18:46:00,37.6,29.8,30.14,North,0,1.9,5.5,73,0.00,,,0.06,WUHU216TE923,2013-02-08 23:46:00,
2013-02-08 18:51:00,37.6,29.8,30.14,WSW,248,0.9,1.5,73,0.00,,,0.06,WUHU216TE923,2013-02-08 23:51:00,
2013-02-08 18:56:00,37.6,29.8,30.14,WSW,248,0.9,1.5,73,0.00,,,0.06,WUHU216TE923,2013-02-08 23:56:00,
2013-02-08 19:00:00,37.6,29.8,30.15,West,270,1.4,1.9,73,0.00,,,0.06,WUHU216TE923,2013-02-09 00:00:00,
2013-02-08 19:01:00,37.6,29.8,30.15,West,270,1.4,1.9,73,0.00,,,0.06,WUHU216TE923,2013-02-09 00:01:00,
2013-02-08 19:06:00,37.6,29.8,30.15,West,270,1.4,1.9,73,0.00,,,0.06,WUHU216TE923,2013-02-09 00:06:00,
2013-02-08 19:11:00,37.2,29.4,30.15,West,270,1.9,2.2,73,0.00,,,0.06,WUHU216TE923,2013-02-09 00:11:00,
2013-02-08 19:16:00,37.2,29.4,30.15,West,270,1.9,2.2,73,0.00,,,0.06,WUHU216TE923,2013-02-09 00:16:00,
2013-02-08 19:21:00,37.2,29.4,30.15,West,270,1.4,2.8,73,0.00,,,0.06,WUHU216TE923,2013-02-09 00:21:00,
2013-02-08 19:26:00,37.2,29.4,30.15,West,270,1.4,2.8,73,0.00,,,0.06,WUHU216TE923,2013-02-09 00:26:00,
2013-02-08 19:31:00,37.2,29.4,30.15,West,270,1.5,2.8,73,0.00,,,0.06,WUHU216TE923,2013-02-09 00:31:00,
2013-02-08 19:36:00,37.2,29.4,30.15,West,270,1.5,2.8,73,0.00,,,0.06,WUHU216TE923,2013-02-09 00:36:00,
2013-02-08 19:41:00,37.4,29.6,30.16,North,0,1.4,2.5,73,0.00,,,0.06,WUHU216TE923,2013-02-09 00:41:00,
2013-02-08 19:46:00,37.4,29.6,30.16,North,0,1.4,2.5,73,0.00,,,0.06,WUHU216TE923,2013-02-09 00:46:00,
2013-02-08 19:51:00,37.2,29.4,30.16,SSE,158,1.4,2.5,73,0.00,,,0.06,WUHU216TE923,2013-02-09 00:51:00,
2013-02-08 19:56:00,37.2,29.4,30.16,SSE,158,1.4,2.5,73,0.00,,,0.06,WUHU216TE923,2013-02-09 00:56:00,
2013-02-08 20:01:00,37.2,29.4,30.17,NNE,23,1.7,3.3,73,0.00,,,0.06,WUHU216TE923,2013-02-09 01:01:00,
2013-02-08 20:06:00,37.2,29.4,30.17,NNE,23,1.7,3.3,73,0.00,,,0.06,WUHU216TE923,2013-02-09 01:06:00,
2013-02-08 20:11:00,37.2,29.4,30.17,WSW,248,1.1,2.8,73,0.00,,,0.06,WUHU216TE923,2013-02-09 01:11:00,
2013-02-08 20:16:00,37.2,29.4,30.17,WSW,248,1.1,2.8,73,0.00,,,0.06,WUHU216TE923,2013-02-09 01:16:00,
2013-02-08 20:21:00,37.0,29.2,30.17,East,90,1.5,1.9,73,0.00,,,0.06,WUHU216TE923,2013-02-09 01:21:00,
2013-02-08 20:26:00,37.0,29.2,30.17,East,90,1.5,1.9,73,0.00,,,0.06,WUHU216TE923,2013-02-09 01:26:00,
2013-02-08 20:31:00,37.0,29.2,30.17,SSW,203,1.2,2.0,73,0.00,,,0.06,WUHU216TE923,2013-02-09 01:31:00,
2013-02-08 20:36:00,37.0,29.2,30.17,SSW,203,1.2,2.0,73,0.00,,,0.06,WUHU216TE923,2013-02-09 01:36:00,
2013-02-08 20:41:00,37.0,29.2,30.18,West,270,0.9,2.1,73,0.00,,,0.06,WUHU216TE923,2013-02-09 01:41:00,
2013-02-08 20:46:00,37.0,29.2,30.18,West,270,0.9,2.1,73,0.00,,,0.06,WUHU216TE923,2013-02-09 01:46:00,
2013-02-08 20:51:00,37.0,28.9,30.18,WNW,293,1.4,2.2,72,0.00,,,0.06,WUHU216TE923,2013-02-09 01:51:00,
2013-02-08 20:56:00,37.0,28.9,30.18,WNW,293,1.4,2.2,72,0.00,,,0.06,WUHU216TE923,2013-02-09 01:56:00,
2013-02-08 21:01:00,37.0,28.9,30.19,West,270,1.2,3.0,72,0.00,,,0.06,WUHU216TE923,2013-02-09 02:01:00,
2013-02-08 21:06:00,37.0,28.9,30.19,West,270,1.2,3.0,72,0.00,,,0.06,WUHU216TE923,2013-02-09 02:06:00,
2013-02-08 21:11:00,37.0,28.9,30.19,NW,315,1.2,2.2,72,0.00,,,0.06,WUHU216TE923,2013-02-09 02:11:00,
2013-02-08 21:16:00,37.0,28.9,30.19,NW,315,1.2,2.2,72,0.00,,,0.06,WUHU216TE923,2013-02-09 02:16:00,
2013-02-08 21:21:00,37.0,28.9,30.19,WNW,293,1.0,2.0,72,0.00,,,0.06,WUHU216TE923,2013-02-09 02:21:00,
2013-02-08 21:26:00,37.0,28.9,30.19,WNW,293,1.0,2.0,72,0.00,,,0.06,WUHU216TE923,2013-02-09 02:26:00,
2013-02-08 21:31:00,37.2,29.1,30.19,NNE,23,0.5,0.7,72,0.00,,,0.06,WUHU216TE923,2013-02-09 02:31:00,
2013-02-08 21:36:00,37.2,29.1,30.19,NNE,23,0.5,0.7,72,0.00,,,0.06,WUHU216TE923,2013-02-09 02:36:00,
2013-02-08 21:41:00,37.2,29.1,30.19,West,270,0.6,1.9,72,0.00,,,0.06,WUHU216TE923,2013-02-09 02:41:00,
2013-02-08 21:46:00,37.2,29.1,30.19,West,270,0.6,1.9,72,0.00,,,0.06,WUHU216TE923,2013-02-09 02:46:00,
2013-02-08 21:51:00,37.2,29.1,30.19,West,270,0.8,2.9,72,0.00,,,0.06,WUHU216TE923,2013-02-09 02:51:00,
2013-02-08 21:56:00,37.2,29.1,30.19,West,270,0.8,2.9,72,0.00,,,0.06,WUHU216TE923,2013-02-09 02:56:00,
2013-02-08 22:01:00,37.2,29.4,30.19,West,270,1.1,1.7,73,0.00,,,0.06,WUHU216TE923,2013-02-09 03:01:00,
2013-02-08 22:06:00,37.2,29.4,30.19,West,270,1.1,1.7,73,0.00,,,0.06,WUHU216TE923,2013-02-09 03:06:00,
2013-02-08 22:11:00,37.6,29.8,30.19,West,270,0.4,1.8,73,0.00,,,0.06,WUHU216TE923,2013-02-09 03:11:00,
2013-02-08 22:16:00,37.6,29.8,30.19,West,270,0.4,1.8,73,0.00,,,0.06,WUHU216TE923,2013-02-09 03:16:00,
2013-02-08 22:21:00,37.6,29.5,30.20,West,270,0.6,1.3,72,0.00,,,0.06,WUHU216TE923,2013-02-09 03:21:00,
2013-02-08 22:26:00,37.6,29.5,30.20,West,270,0.6,1.3,72,0.00,,,0.06,WUHU216TE923,2013-02-09 03:26:00,
2013-02-08 22:31:00,37.6,29.5,30.20,NE,45,0.5,1.3,72,0.00,,,0.06,WUHU216TE923,2013-02-09 03:31:00,
2013-02-08 22:36:00,37.6,29.5,30.20,NE,45,0.5,1.3,72,0.00,,,0.06,WUHU216TE923,2013-02-09 03:36:00,
2013-02-08 22:41:00,37.2,29.1,30.20,West,270,1.2,1.6,72,0.00,,,0.06,WUHU216TE923,2013-02-09 03:41:00,
2013-02-08 22:46:00,37.2,29.1,30.20,West,270,1.2,1.6,72,0.00,,,0.06,WUHU216TE923,2013-02-09 03:46:00,
2013-02-08 22:51:00,37.2,29.1,30.20,West,270,0.9,2.1,72,0.00,,,0.06,WUHU216TE923,2013-02-09 03:51:00,
2013-02-08 22:56:00,37.2,29.1,30.20,West,270,0.9,2.1,72,0.00,,,0.06,WUHU216TE923,2013-02-09 03:56:00,
2013-02-08 23:01:00,37.0,28.9,30.18,West,270,1.4,3.0,72,0.00,,,0.06,WUHU216TE923,2013-02-09 04:01:00,
2013-02-08 23:06:00,37.0,28.9,30.18,West,270,1.4,3.0,72,0.00,,,0.06,WUHU216TE923,2013-02-09 04:06:00,
2013-02-08 23:11:00,36.9,28.8,30.18,West,270,0.9,1.4,72,0.00,,,0.06,WUHU216TE923,2013-02-09 04:11:00,
2013-02-08 23:16:00,36.9,28.8,30.18,West,270,0.9,1.4,72,0.00,,,0.06,WUHU216TE923,2013-02-09 04:16:00,
2013-02-08 23:21:00,37.0,28.9,30.19,West,270,0.8,3.6,72,0.00,,,0.06,WUHU216TE923,2013-02-09 04:21:00,
2013-02-08 23:26:00,37.0,28.9,30.19,West,270,0.8,3.6,72,0.00,,,0.06,WUHU216TE923,2013-02-09 04:26:00,
2013-02-08 23:31:00,36.9,29.1,30.19,West,270,0.5,2.2,73,0.00,,,0.06,WUHU216TE923,2013-02-09 04:31:00,
2013-02-08 23:36:00,36.9,29.1,30.19,West,270,0.5,2.2,73,0.00,,,0.06,WUHU216TE923,2013-02-09 04:36:00,
2013-02-08 23:41:00,36.7,28.9,30.20,NW,315,0.8,2.0,73,0.00,,,0.06,WUHU216TE923,2013-02-09 04:41:00,
2013-02-08 23:46:00,36.7,28.9,30.20,NW,315,0.8,2.0,73,0.00,,,0.06,WUHU216TE923,2013-02-09 04:46:00,
2013-02-08 23:51:00,36.5,29.1,30.20,NNW,338,0.5,1.1,74,0.00,,,0.06,WUHU216TE923,2013-02-09 04:51:00,
2013-02-08 23:56:00,36.5,29.1,30.20,NNW,338,0.5,1.1,74,0.00,,,0.06,WUHU216TE923,2013-02-09 04:56:00,